createdAt,value
2019-01-17T00:01:54.214Z,6.87
2019-01-17T00:04:43.947Z,6.70
2019-01-17T00:07:33.518Z,7.03
2019-01-17T00:13:45.874Z,6.23
2019-01-17T00:16:33.457Z,6.00
2019-01-17T00:19:23.619Z,6.93
2019-01-17T00:22:13.823Z,6.00
2019-01-17T00:28:25.725Z,6.10
2019-01-17T00:31:17.908Z,5.17
2019-01-17T00:34:26.745Z,6.03
2019-01-17T00:37:16.299Z,5.43
2019-01-17T00:40:18.316Z,5.30
2019-01-17T00:46:27.110Z,5.97
2019-01-17T00:49:10.633Z,5.57
2019-01-17T00:52:01.255Z,6.37
2019-01-17T00:54:51.308Z,6.00
2019-01-17T00:57:39.883Z,6.13
2019-01-17T01:01:09.451Z,6.10
2019-01-17T01:03:59.193Z,5.87
2019-01-17T01:09:57.729Z,6.40
2019-01-17T01:12:47.082Z,6.07
2019-01-17T01:18:47.985Z,6.27
2019-01-17T01:21:38.741Z,6.27
2019-01-17T01:24:28.632Z,5.90
2019-01-17T01:31:11.701Z,6.00
2019-01-17T01:34:03.671Z,6.37
2019-01-17T01:37:04.334Z,5.40
2019-01-17T01:39:56.302Z,6.07
2019-01-17T01:45:59.806Z,5.53
2019-01-17T01:49:08.119Z,5.03
2019-01-17T01:51:45.306Z,5.60
2019-01-17T01:54:21.839Z,6.03
2019-01-17T01:57:09.336Z,5.87
2019-01-17T01:59:57.633Z,5.90
2019-01-17T02:03:05.767Z,5.67
2019-01-17T02:08:32.226Z,6.33
2019-01-17T02:14:08.298Z,6.07
2019-01-17T02:16:51.781Z,5.93
2019-01-17T02:19:22.854Z,5.50
2019-01-17T02:25:07.605Z,5.83
2019-01-17T02:27:39.494Z,5.63
2019-01-17T02:30:11.654Z,6.23
2019-01-17T02:41:29.885Z,5.33
2019-01-17T02:44:21.011Z,5.60
2019-01-17T02:46:51.821Z,5.53
2019-01-17T02:49:24.180Z,5.83
2019-01-17T02:55:03.547Z,5.90
2019-01-17T02:57:46.736Z,6.50
2019-01-17T03:00:28.020Z,6.10
2019-01-17T03:05:49.890Z,6.63
2019-01-17T03:11:07.940Z,7.23
2019-01-17T03:13:38.787Z,6.90
2019-01-17T03:19:02.363Z,7.07
2019-01-17T03:21:54.210Z,7.23
2019-01-17T03:24:25.605Z,7.10
2019-01-17T03:26:57.059Z,7.13
2019-01-17T03:29:45.682Z,7.13
2019-01-17T03:32:17.300Z,7.97
2019-01-17T03:38:20.530Z,8.23
2019-01-17T03:40:51.295Z,8.33
2019-01-17T03:43:21.864Z,8.50
2019-01-17T03:45:53.149Z,8.17
2019-01-17T03:48:23.810Z,7.90
2019-01-17T03:56:28.758Z,9.33
2019-01-17T03:59:00.153Z,9.40
2019-01-17T04:05:02.714Z,9.67
2019-01-17T04:07:33.171Z,10.83
2019-01-17T04:13:45.925Z,10.23
2019-01-17T04:16:16.223Z,10.27
2019-01-17T04:18:46.747Z,10.70
2019-01-17T04:21:17.492Z,11.47
2019-01-17T04:23:53.745Z,11.53
2019-01-17T04:26:26.018Z,10.87
2019-01-17T04:31:39.065Z,11.20
2019-01-17T04:34:28.395Z,11.87
2019-01-17T04:36:58.938Z,12.47
2019-01-17T04:39:29.512Z,11.37
2019-01-17T04:42:00.113Z,11.57
2019-01-17T04:44:30.522Z,12.60
2019-01-17T04:47:01.952Z,12.27
2019-01-17T04:49:32.479Z,13.13
2019-01-17T04:52:03.035Z,12.50
2019-01-17T04:54:33.405Z,13.23
2019-01-17T04:57:03.851Z,11.83
2019-01-17T04:59:34.895Z,12.23
2019-01-17T05:02:05.794Z,12.80
2019-01-17T05:04:36.137Z,12.73
2019-01-17T05:07:06.502Z,12.87
2019-01-17T05:09:37.264Z,13.27
2019-01-17T05:12:28.149Z,12.53
2019-01-17T05:15:00.154Z,12.97
2019-01-17T05:17:30.532Z,13.07
2019-01-17T05:20:01.059Z,13.17
2019-01-17T05:22:31.490Z,12.67
2019-01-17T05:25:01.959Z,12.70
2019-01-17T05:27:32.396Z,13.33
2019-01-17T05:30:05.343Z,12.37
2019-01-17T05:32:36.857Z,12.57
2019-01-17T05:38:10.294Z,12.63
2019-01-17T05:40:40.655Z,12.80
2019-01-17T05:43:31.477Z,13.70
2019-01-17T05:48:46.854Z,13.47
2019-01-17T05:51:37.439Z,12.47
2019-01-17T05:54:26.865Z,13.70
2019-01-17T05:57:16.225Z,13.20
2019-01-17T05:59:46.654Z,14.10
2019-01-17T06:02:17.503Z,14.13
2019-01-17T06:04:47.927Z,14.43
2019-01-17T06:10:25.978Z,14.70
2019-01-17T06:12:59.796Z,15.53
2019-01-17T06:22:00.403Z,14.17
2019-01-17T06:24:53.979Z,14.27
2019-01-17T06:27:26.948Z,14.80
2019-01-17T06:29:57.763Z,14.37
2019-01-17T06:32:28.194Z,15.30
2019-01-17T06:34:58.860Z,14.13
2019-01-17T06:37:29.557Z,14.47
2019-01-17T06:40:39.608Z,16.43
2019-01-17T06:46:06.035Z,13.97
2019-01-17T06:48:36.426Z,14.87
2019-01-17T06:54:30.397Z,14.43
2019-01-17T07:00:07.428Z,14.13
2019-01-17T07:02:38.119Z,13.80
2019-01-17T07:05:22.012Z,12.97
2019-01-17T07:07:52.553Z,12.80
2019-01-17T07:10:23.380Z,13.33
2019-01-17T07:16:21.477Z,13.67
2019-01-17T07:18:58.859Z,17.63
2019-01-17T07:21:48.688Z,13.13
2019-01-17T07:24:39.633Z,13.43
2019-01-17T07:29:53.903Z,12.37
2019-01-17T07:35:54.253Z,12.23
2019-01-17T07:41:07.501Z,12.20
2019-01-17T07:43:37.888Z,13.10
2019-01-17T07:46:08.632Z,13.83
2019-01-17T07:48:40.178Z,12.63
2019-01-17T07:51:10.600Z,12.53
2019-01-17T07:53:40.997Z,13.40
2019-01-17T07:56:11.589Z,12.73
2019-01-17T07:59:01.003Z,12.97
2019-01-17T08:01:50.437Z,13.13
2019-01-17T08:04:20.851Z,12.13
2019-01-17T08:06:56.730Z,12.23
2019-01-17T08:12:50.909Z,13.47
2019-01-17T08:15:40.358Z,12.60
2019-01-17T08:18:10.808Z,11.37
2019-01-17T08:27:03.502Z,11.97
2019-01-17T08:29:44.813Z,11.10
2019-01-17T08:32:15.246Z,11.07
2019-01-17T08:34:45.634Z,13.70
2019-01-17T08:41:06.600Z,10.23
2019-01-17T08:43:56.032Z,10.40
2019-01-17T08:49:29.021Z,9.50
2019-01-17T08:52:01.363Z,7.97
2019-01-17T08:54:33.292Z,8.03
2019-01-17T08:57:03.755Z,7.40
2019-01-17T08:59:34.284Z,7.27
2019-01-17T09:05:14.386Z,6.90
2019-01-17T09:07:44.863Z,6.50
2019-01-17T09:10:39.093Z,6.43
2019-01-17T09:13:42.045Z,6.00
2019-01-17T09:16:33.043Z,5.00
2019-01-17T09:19:03.640Z,5.77
2019-01-17T09:21:34.362Z,5.10
2019-01-17T09:24:04.842Z,4.27
2019-01-17T09:26:35.311Z,4.90
2019-01-17T09:29:07.013Z,4.17
2019-01-17T09:31:38.282Z,3.30
2019-01-17T09:43:46.113Z,3.50
2019-01-17T09:52:50.401Z,3.77
2019-01-17T10:02:05.665Z,3.53
2019-01-17T10:11:31.926Z,3.00
2019-01-17T10:18:03.987Z,3.03
2019-01-17T10:21:14.289Z,3.50
2019-01-17T10:24:24.471Z,3.33
2019-01-17T10:27:34.598Z,3.63
2019-01-17T10:30:44.371Z,3.70
2019-01-17T10:33:53.303Z,3.23
2019-01-17T10:37:04.272Z,3.23
2019-01-17T10:43:34.802Z,2.30
2019-01-17T10:46:43.658Z,1.33
2019-01-17T10:49:52.441Z,1.80
2019-01-17T10:56:11.592Z,1.80
2019-01-17T10:59:26.937Z,1.90
2019-01-17T11:02:35.757Z,3.60
2019-01-17T11:05:45.988Z,3.10
2019-01-17T11:08:54.587Z,2.50
2019-01-17T11:12:03.285Z,3.00
2019-01-17T11:15:13.955Z,2.70
2019-01-17T11:18:30.065Z,3.40
2019-01-17T11:21:12.940Z,2.70
2019-01-17T11:27:39.057Z,2.67
2019-01-17T11:30:22.865Z,2.70
2019-01-17T11:40:06.164Z,3.40
2019-01-17T11:43:15.847Z,5.37
2019-01-17T11:46:36.159Z,6.63
2019-01-17T11:49:45.537Z,5.93
2019-01-17T11:52:56.520Z,5.33
2019-01-17T11:56:07.016Z,4.63
2019-01-17T11:59:15.821Z,4.90
2019-01-17T12:02:20.339Z,3.87
2019-01-17T12:04:49.279Z,3.60
2019-01-17T12:18:53.809Z,2.50
2019-01-17T12:21:45.123Z,2.40
2019-01-17T12:24:38.457Z,2.27
2019-01-17T12:27:20.334Z,2.53
2019-01-17T12:32:41.771Z,2.03
2019-01-17T12:38:42.257Z,2.00
2019-01-17T12:44:36.105Z,1.67
2019-01-17T12:47:08.634Z,1.70
2019-01-17T12:50:00.211Z,2.00
2019-01-17T12:52:32.869Z,1.80
2019-01-17T13:05:01.676Z,2.47
2019-01-17T13:07:32.310Z,2.53
2019-01-17T13:10:03.056Z,2.40
2019-01-17T13:12:33.646Z,1.97
2019-01-17T13:15:23.123Z,2.30
2019-01-17T13:17:53.637Z,2.80
2019-01-17T13:20:24.399Z,2.37
2019-01-17T13:22:56.709Z,2.70
2019-01-17T13:25:27.476Z,2.70
2019-01-17T13:28:18.903Z,2.07
2019-01-17T13:31:08.640Z,2.23
2019-01-17T13:33:59.790Z,2.40
2019-01-17T13:36:32.243Z,2.70
2019-01-17T13:39:02.934Z,2.03
2019-01-17T13:44:56.519Z,1.70
2019-01-17T13:50:55.908Z,1.90
2019-01-17T13:56:21.910Z,2.00
2019-01-17T14:02:09.871Z,1.97
2019-01-17T14:07:35.281Z,1.60
2019-01-17T14:10:52.494Z,2.07
2019-01-17T14:13:42.194Z,3.43
2019-01-17T14:16:32.794Z,4.27
2019-01-17T14:24:48.414Z,2.10
2019-01-17T14:27:18.954Z,1.67
2019-01-17T14:29:49.806Z,1.93
2019-01-17T14:32:20.145Z,2.00
2019-01-17T14:35:09.986Z,1.97
2019-01-17T14:37:40.539Z,1.47
2019-01-17T14:40:10.998Z,1.83
2019-01-17T14:42:41.509Z,1.57
2019-01-17T14:45:15.049Z,2.27
2019-01-17T14:47:45.425Z,1.53
2019-01-17T14:50:34.888Z,1.83
2019-01-17T14:53:05.332Z,1.90
2019-01-17T14:55:47.124Z,1.50
2019-01-17T14:58:17.471Z,1.97
2019-01-17T15:00:47.901Z,1.80
2019-01-17T15:09:40.263Z,1.50
2019-01-17T15:12:10.707Z,1.60
2019-01-17T15:14:41.105Z,2.27
2019-01-17T15:17:11.597Z,1.90
2019-01-17T15:25:39.647Z,1.73
2019-01-17T15:28:20.967Z,1.60
2019-01-17T15:34:13.302Z,2.07
2019-01-17T15:36:43.921Z,1.87
2019-01-17T15:39:22.060Z,2.10
2019-01-17T15:44:56.405Z,1.53
2019-01-17T15:47:26.990Z,1.73
2019-01-17T15:52:40.913Z,1.83
2019-01-17T15:58:15.375Z,2.03
2019-01-17T16:00:45.857Z,1.63
2019-01-17T16:05:57.721Z,2.47
2019-01-17T16:08:28.216Z,2.10
2019-01-17T16:19:41.429Z,2.43
2019-01-17T16:22:12.084Z,2.80
2019-01-17T16:33:48.637Z,5.80
2019-01-17T16:39:27.094Z,3.87
2019-01-17T16:41:57.660Z,4.00
2019-01-17T16:48:00.708Z,2.73
2019-01-17T16:51:02.172Z,2.60
2019-01-17T16:53:32.861Z,2.57
2019-01-17T16:59:05.999Z,2.77
2019-01-17T17:01:36.589Z,2.97
2019-01-17T17:04:26.067Z,3.60
2019-01-17T17:06:58.686Z,3.00
2019-01-17T17:12:49.770Z,3.27
2019-01-17T17:15:27.151Z,4.40
2019-01-17T17:17:57.657Z,4.40
2019-01-17T17:23:17.807Z,5.80
2019-01-17T17:25:48.267Z,6.60
2019-01-17T17:28:18.695Z,7.67
2019-01-17T17:30:49.094Z,8.50
2019-01-17T17:33:21.760Z,9.50
2019-01-17T17:39:02.312Z,8.23
2019-01-17T17:41:32.960Z,9.27
2019-01-17T17:44:03.691Z,7.93
2019-01-17T17:46:54.780Z,6.17
2019-01-17T17:52:28.932Z,4.93
2019-01-17T17:55:00.233Z,5.23
2019-01-17T17:57:31.256Z,5.23
2019-01-17T18:00:17.492Z,4.90
2019-01-17T18:05:44.134Z,5.63
2019-01-17T18:08:52.709Z,6.20
2019-01-17T18:11:35.304Z,6.80
2019-01-17T18:14:24.878Z,5.23
2019-01-17T18:16:55.331Z,5.43
2019-01-17T18:22:08.561Z,5.77
2019-01-17T18:24:38.923Z,5.70
2019-01-17T18:27:22.264Z,5.63
2019-01-17T18:30:00.815Z,6.73
2019-01-17T18:32:31.480Z,6.00
2019-01-17T18:35:01.915Z,6.13
2019-01-17T18:37:32.995Z,6.50
2019-01-17T18:40:03.384Z,6.80
2019-01-17T18:42:36.334Z,7.60
2019-01-17T18:48:09.691Z,8.70
2019-01-17T18:50:40.055Z,9.10
2019-01-17T18:53:14.000Z,9.40
2019-01-17T18:55:46.938Z,8.47
2019-01-17T18:58:17.441Z,9.17
2019-01-17T19:00:47.857Z,10.13
2019-01-17T19:06:53.488Z,10.37
2019-01-17T19:09:23.963Z,10.47
2019-01-17T19:11:54.481Z,11.40
2019-01-17T19:17:25.588Z,11.63
2019-01-17T19:20:16.507Z,12.87
2019-01-17T19:22:46.945Z,11.37
2019-01-17T19:25:17.586Z,12.03
2019-01-17T19:27:52.572Z,11.80
2019-01-17T19:30:25.131Z,11.40
2019-01-17T19:32:55.831Z,12.70
2019-01-17T19:38:22.091Z,11.87
2019-01-17T19:40:57.178Z,11.73
2019-01-17T19:43:27.916Z,11.23
2019-01-17T19:45:59.059Z,11.90
2019-01-17T19:48:29.640Z,11.97
2019-01-17T19:51:00.822Z,12.43
2019-01-17T19:53:31.324Z,12.67
2019-01-17T19:56:01.704Z,12.20
2019-01-17T19:58:32.167Z,12.37
2019-01-17T20:04:04.425Z,12.10
2019-01-17T20:06:37.343Z,12.07
2019-01-17T20:12:07.726Z,13.07
2019-01-17T20:14:39.962Z,13.43
2019-01-17T20:17:10.530Z,14.27
2019-01-17T20:19:41.324Z,13.87
2019-01-17T20:22:51.162Z,13.83
2019-01-17T20:25:42.393Z,17.82
2019-01-17T20:28:13.395Z,13.67
2019-01-17T20:30:45.153Z,14.27
2019-01-17T20:33:35.818Z,13.67
2019-01-17T20:36:06.394Z,13.23
2019-01-17T20:39:16.899Z,13.43
2019-01-17T20:41:47.281Z,14.37
2019-01-17T20:44:18.100Z,14.33
2019-01-17T20:47:07.779Z,14.93
2019-01-17T20:49:45.603Z,15.53
2019-01-17T20:52:15.940Z,14.47
2019-01-17T20:54:48.576Z,16.47
2019-01-17T20:57:19.250Z,14.93
2019-01-17T20:59:49.682Z,16.00
2019-01-17T21:02:21.499Z,15.50
2019-01-17T21:04:53.390Z,15.00
2019-01-17T21:07:23.965Z,15.90
2019-01-17T21:10:06.565Z,15.07
2019-01-17T21:12:37.442Z,15.43
2019-01-17T21:15:22.751Z,14.97
2019-01-17T21:17:53.311Z,13.53
2019-01-17T21:20:23.775Z,14.03
2019-01-17T21:22:54.182Z,12.60
2019-01-17T21:25:24.702Z,13.50
2019-01-17T21:31:02.474Z,12.30
2019-01-17T21:33:33.056Z,12.13
2019-01-17T21:36:03.791Z,12.27
2019-01-17T21:38:34.265Z,11.87
2019-01-17T21:41:04.884Z,12.33
2019-01-17T21:46:37.495Z,11.70
2019-01-17T21:49:28.423Z,11.57
2019-01-17T21:52:01.326Z,11.53
2019-01-17T21:55:29.603Z,10.83
2019-01-17T21:58:00.652Z,10.57
2019-01-17T22:00:31.546Z,10.67
2019-01-17T22:03:02.209Z,10.53
2019-01-17T22:05:34.852Z,10.73
2019-01-17T22:08:05.852Z,10.77
2019-01-17T22:10:57.480Z,10.07
2019-01-17T22:13:28.135Z,10.53
2019-01-17T22:15:58.752Z,11.77
2019-01-17T22:18:29.433Z,11.77
2019-01-17T22:21:03.903Z,13.30
2019-01-17T22:23:53.369Z,12.60
2019-01-17T22:26:23.843Z,13.20
2019-01-17T22:28:54.265Z,13.30
2019-01-17T22:31:24.838Z,12.87
2019-01-17T22:33:55.434Z,12.57
2019-01-17T22:36:28.170Z,13.57
2019-01-17T22:38:58.805Z,13.43
2019-01-17T22:41:50.299Z,13.80
2019-01-17T22:47:24.546Z,15.13
2019-01-17T22:49:55.774Z,14.43
2019-01-17T22:52:26.322Z,14.83
2019-01-17T22:58:37.741Z,13.20
2019-01-17T23:01:39.948Z,13.57
2019-01-17T23:04:21.361Z,13.53
2019-01-17T23:07:03.043Z,13.40
2019-01-17T23:09:33.818Z,13.00
2019-01-17T23:12:04.566Z,12.73
2019-01-17T23:14:35.091Z,12.57
2019-01-17T23:20:08.899Z,12.57
2019-01-17T23:22:39.430Z,11.37
2019-01-17T23:25:11.329Z,10.83
2019-01-17T23:27:42.368Z,10.63
2019-01-17T23:33:29.476Z,9.77
2019-01-17T23:36:02.143Z,9.20
2019-01-17T23:38:32.734Z,8.47
2019-01-17T23:41:03.354Z,8.80
2019-01-17T23:43:34.083Z,8.90
2019-01-17T23:46:25.266Z,9.00
2019-01-17T23:48:55.791Z,9.60
2019-01-17T23:51:29.062Z,8.60
2019-01-17T23:54:03.298Z,8.30
2019-01-17T23:56:33.821Z,8.67
2019-01-17T23:59:07.062Z,8.00
